This is the latest recevied weather packets stored in our database for station/object HB9FHL-13. If no packets are shown the sender has not sent any weather packets the latest 10 day(s).
| Time | Temp. | Humidity | Pressure | Rain* | Wind** | Luminosity | Snow |
|---|---|---|---|---|---|---|---|
| 1777389256 | 16.11° C | - | 1018.4 hPa | 0 mm | - | - | - |
| 1777388956 | 16.67° C | - | 1015.7 hPa | 0 mm | - | - | - |
| 1777388351 | 16.11° C | - | 1011.4 hPa | 0 mm | - | - | - |
| 1777388164 | 16.11° C | - | 1017.8 hPa | 0 mm | - | - | - |
| 1777388053 | 16.11° C | - | 1017.8 hPa | 0 mm | - | - | - |
| 1777387750 | 16.11° C | - | 1016.3 hPa | 0 mm | - | - | - |
| 1777387602 | 16.67° C | - | 1015.2 hPa | 0 mm | - | - | - |
| 1777387541 | 16.67° C | - | 1015.2 hPa | 0 mm | - | - | - |
| 1777387486 | 16.67° C | - | 1015.2 hPa | 0 mm | - | - | - |
| 1777387450 | 16.67° C | - | 1015.2 hPa | 0 mm | - | - | - |
| 1777387149 | 16.11° C | - | 1013.5 hPa | 0 mm | - | - | - |
| 1777386849 | 16.67° C | - | 1016.7 hPa | 0 mm | - | - | - |
| 1777386589 | 16.67° C | - | 1012.7 hPa | 0 mm | - | - | - |
| 1777386548 | 16.67° C | - | 1012.7 hPa | 0 mm | - | - | - |
| 1777386245 | 16.67° C | - | 1017.5 hPa | 0 mm | - | - | - |
| 1777385945 | 17.22° C | - | 1017.9 hPa | 0 mm | - | - | - |
| 1777385644 | 16.67° C | - | 1015 hPa | 0 mm | - | - | - |
| 1777385344 | 17.78° C | - | 1017.6 hPa | 0 mm | - | - | - |
| 1777385038 | 16.67° C | - | 1007.7 hPa | 0 mm | - | - | - |
| 1777384736 | 17.78° C | - | 1018.2 hPa | 0 mm | - | - | - |
| 1777384431 | 18.33° C | - | 1018.1 hPa | 0 mm | - | - | - |
| 1777384128 | 17.78° C | - | 1014.3 hPa | 0 mm | - | - | - |
| 1777383826 | 17.78° C | - | 1021 hPa | 0 mm | - | - | - |
| 1777383525 | 17.22° C | - | 1018.9 hPa | 0 mm | - | - | - |
| 1777383226 | 17.78° C | - | 1019.3 hPa | 0 mm | - | - | - |
* Rain since midnight (hover to see other rain measurements)
** Current wind speed in m/s (hover to see current wind gust speed)